createdAt,value
2019-04-26T00:00:24.472Z,47.60
2019-04-26T00:02:54.579Z,47.70
2019-04-26T00:05:33.914Z,47.60
2019-04-26T00:07:54.116Z,47.60
2019-04-26T00:10:27.264Z,47.80
2019-04-26T00:12:57.774Z,47.70
2019-04-26T00:15:30.539Z,47.70
2019-04-26T00:18:00.996Z,47.70
2019-04-26T00:20:30.983Z,47.70
2019-04-26T00:22:59.437Z,47.80
2019-04-26T00:25:27.897Z,47.80
2019-04-26T00:27:56.326Z,47.90
2019-04-26T00:30:24.784Z,48.00
2019-04-26T00:32:53.231Z,48.60
2019-04-26T00:35:22.272Z,48.00
2019-04-26T00:37:50.726Z,47.90
2019-04-26T00:40:20.322Z,48.00
2019-04-26T00:42:50.827Z,48.00
2019-04-26T00:45:21.240Z,48.00
2019-04-26T00:47:50.911Z,48.00
2019-04-26T00:50:19.995Z,48.10
2019-04-26T00:52:49.172Z,48.10
2019-04-26T00:55:19.649Z,48.00
2019-04-26T00:57:48.930Z,48.10
2019-04-26T01:00:18.201Z,48.10
2019-04-26T01:02:48.729Z,48.10
2019-04-26T01:05:17.169Z,48.20
2019-04-26T01:07:47.322Z,48.10
2019-04-26T01:10:16.623Z,48.20
2019-04-26T01:12:46.183Z,48.20
2019-04-26T01:15:17.059Z,48.20
2019-04-26T01:17:44.952Z,48.20
2019-04-26T01:20:16.134Z,48.30
2019-04-26T01:22:51.613Z,48.20
2019-04-26T01:25:47.333Z,48.20
2019-04-26T01:28:30.629Z,48.20
2019-04-26T01:31:02.125Z,48.40
2019-04-26T01:33:32.998Z,48.30
2019-04-26T01:36:12.393Z,48.40
2019-04-26T01:38:32.397Z,48.30
2019-04-26T01:41:03.543Z,48.50
2019-04-26T01:43:45.352Z,48.40
2019-04-26T01:46:22.116Z,48.40
2019-04-26T01:48:56.846Z,48.40
2019-04-26T01:51:40.177Z,48.40
2019-04-26T01:54:11.174Z,48.50
2019-04-26T01:56:39.791Z,48.50
2019-04-26T01:59:11.576Z,48.50
2019-04-26T02:01:41.809Z,48.50
2019-04-26T02:04:10.591Z,48.60
2019-04-26T02:06:39.778Z,48.60
2019-04-26T02:09:10.187Z,48.60
2019-04-26T02:11:39.711Z,48.60
2019-04-26T02:14:08.879Z,48.70
2019-04-26T02:16:37.578Z,48.80
2019-04-26T02:19:07.083Z,48.80
2019-04-26T02:21:42.970Z,48.70
2019-04-26T02:24:13.567Z,48.80
2019-04-26T02:26:44.859Z,48.90
2019-04-26T02:29:27.098Z,48.80
2019-04-26T02:31:58.661Z,48.90
2019-04-26T02:34:29.903Z,49.00
2019-04-26T02:37:02.489Z,48.90
2019-04-26T02:39:35.302Z,49.00
2019-04-26T02:42:07.198Z,49.10
2019-04-26T02:44:46.181Z,49.20
2019-04-26T02:47:32.605Z,49.00
2019-04-26T02:50:05.704Z,49.10
2019-04-26T02:52:42.766Z,49.10
2019-04-26T02:55:22.935Z,49.10
2019-04-26T02:57:53.658Z,49.20
2019-04-26T03:00:22.086Z,49.20
2019-04-26T03:02:53.725Z,49.20
2019-04-26T03:05:22.402Z,49.20
2019-04-26T03:07:53.949Z,49.20
2019-04-26T03:10:25.493Z,49.30
2019-04-26T03:12:56.452Z,49.30
2019-04-26T03:15:30.347Z,49.40
2019-04-26T03:18:19.755Z,49.30
2019-04-26T03:20:51.383Z,49.30
2019-04-26T03:23:41.346Z,49.40
2019-04-26T03:26:18.496Z,49.50
2019-04-26T03:29:05.305Z,49.50
2019-04-26T03:32:02.360Z,49.50
2019-04-26T03:34:56.663Z,49.50
2019-04-26T03:37:58.168Z,49.50
2019-04-26T03:40:38.964Z,49.60
2019-04-26T03:43:34.296Z,49.60
2019-04-26T03:46:29.135Z,49.60
2019-04-26T03:49:06.363Z,49.60
2019-04-26T03:51:49.559Z,49.80
2019-04-26T03:54:26.921Z,49.60
2019-04-26T03:57:19.477Z,49.80
2019-04-26T03:59:52.619Z,49.80
2019-04-26T04:02:31.644Z,49.80
2019-04-26T04:05:04.783Z,49.80
2019-04-26T04:07:39.926Z,49.90
2019-04-26T04:10:11.804Z,49.90
2019-04-26T04:12:44.419Z,49.80
2019-04-26T04:15:16.895Z,49.80
2019-04-26T04:17:55.173Z,49.80
2019-04-26T04:20:41.054Z,49.80
2019-04-26T04:23:13.639Z,49.80
2019-04-26T04:25:50.893Z,49.90
2019-04-26T04:28:34.639Z,50.00
2019-04-26T04:31:32.157Z,50.10
2019-04-26T04:34:12.746Z,50.60
2019-04-26T04:36:49.419Z,50.10
2019-04-26T04:39:22.829Z,50.50
2019-04-26T04:42:07.638Z,50.20
2019-04-26T04:45:08.051Z,50.20
2019-04-26T04:47:49.513Z,50.90
2019-04-26T04:50:20.977Z,50.20
2019-04-26T04:52:55.527Z,50.40
2019-04-26T04:55:38.903Z,50.20
2019-04-26T04:58:32.951Z,50.40
2019-04-26T05:01:20.789Z,50.60
2019-04-26T05:04:11.580Z,51.00
2019-04-26T05:07:06.006Z,50.60
2019-04-26T05:09:53.652Z,50.60
2019-04-26T05:12:25.270Z,50.50
2019-04-26T05:14:59.815Z,50.50
2019-04-26T05:17:36.966Z,50.60
2019-04-26T05:20:27.927Z,50.80
2019-04-26T05:23:08.152Z,51.10
2019-04-26T05:26:06.805Z,51.40
2019-04-26T05:28:52.088Z,51.20
2019-04-26T05:31:34.264Z,51.40
2019-04-26T05:34:13.313Z,51.40
2019-04-26T05:37:11.980Z,52.20
2019-04-26T05:40:01.664Z,51.40
2019-04-26T05:42:43.689Z,52.60
2019-04-26T05:45:40.658Z,51.60
2019-04-26T05:48:28.869Z,51.80
2019-04-26T05:51:13.958Z,52.10
2019-04-26T05:53:59.615Z,52.00
2019-04-26T05:57:03.900Z,53.50
2019-04-26T05:59:44.538Z,52.60
2019-04-26T06:02:35.264Z,53.60
2019-04-26T06:05:20.518Z,53.00
2019-04-26T06:07:56.504Z,53.20
2019-04-26T06:10:35.633Z,53.90
2019-04-26T06:13:31.185Z,53.20
2019-04-26T06:16:16.564Z,54.60
2019-04-26T06:19:16.680Z,53.80
2019-04-26T06:22:02.564Z,54.00
2019-04-26T06:24:56.390Z,55.20
2019-04-26T06:27:50.526Z,54.30
2019-04-26T06:30:28.053Z,53.70
2019-04-26T06:33:11.604Z,54.50
2019-04-26T06:35:44.356Z,54.60
2019-04-26T06:38:17.527Z,58.70
2019-04-26T06:41:21.561Z,60.10
2019-04-26T06:43:58.325Z,59.80
2019-04-26T06:46:57.732Z,59.40
2019-04-26T06:49:51.736Z,59.00
2019-04-26T06:52:23.366Z,58.50
2019-04-26T06:54:58.416Z,57.90
2019-04-26T06:58:05.015Z,57.80
2019-04-26T07:01:01.676Z,57.70
2019-04-26T07:04:16.987Z,57.50
2019-04-26T07:06:54.301Z,57.40
2019-04-26T07:09:28.415Z,57.10
2019-04-26T07:12:05.129Z,57.10
2019-04-26T07:14:56.295Z,57.20
2019-04-26T07:17:45.462Z,57.10
2019-04-26T07:20:30.004Z,57.70
2019-04-26T07:23:48.096Z,57.00
2019-04-26T07:26:53.029Z,56.70
2019-04-26T07:29:39.623Z,56.70
2019-04-26T07:32:33.865Z,57.10
2019-04-26T07:35:28.416Z,58.60
2019-04-26T07:38:11.925Z,59.70
2019-04-26T07:41:07.623Z,59.40
2019-04-26T07:43:57.164Z,58.90
2019-04-26T07:46:55.137Z,58.50
2019-04-26T07:49:59.875Z,58.20
2019-04-26T07:52:51.149Z,58.50
2019-04-26T07:55:28.660Z,58.90
2019-04-26T07:58:33.827Z,58.30
2019-04-26T08:01:15.867Z,58.00
2019-04-26T08:03:49.166Z,57.90
2019-04-26T08:06:32.496Z,57.90
2019-04-26T08:09:07.540Z,57.80
2019-04-26T08:11:42.147Z,57.50
2019-04-26T08:14:33.023Z,57.60
2019-04-26T08:17:08.717Z,57.50
2019-04-26T08:19:40.342Z,57.40
2019-04-26T08:22:20.422Z,57.80
2019-04-26T08:24:45.041Z,57.50
2019-04-26T08:27:23.567Z,57.40
2019-04-26T08:29:52.857Z,57.30
2019-04-26T08:32:24.492Z,57.30
2019-04-26T08:35:02.434Z,57.20
2019-04-26T08:37:37.963Z,57.00
2019-04-26T08:40:07.975Z,57.80
2019-04-26T08:42:42.135Z,57.50
2019-04-26T08:45:15.283Z,57.50
2019-04-26T08:47:51.057Z,57.30
2019-04-26T08:50:29.914Z,57.10
2019-04-26T08:53:01.445Z,57.30
2019-04-26T08:55:31.989Z,57.10
2019-04-26T08:58:03.521Z,57.00
2019-04-26T09:00:39.449Z,57.30
2019-04-26T09:03:12.739Z,57.30
2019-04-26T09:05:55.831Z,57.30
2019-04-26T09:08:28.450Z,56.90
2019-04-26T09:11:02.041Z,56.90
2019-04-26T09:13:35.130Z,56.90
2019-04-26T09:16:12.356Z,57.00
2019-04-26T09:18:43.911Z,56.80
2019-04-26T09:21:13.472Z,56.80
2019-04-26T09:23:54.614Z,56.80
2019-04-26T09:26:30.852Z,56.70
2019-04-26T09:29:16.344Z,56.80
2019-04-26T09:31:50.516Z,56.90
2019-04-26T09:34:21.327Z,57.30
2019-04-26T09:36:49.962Z,57.00
2019-04-26T09:39:19.421Z,56.80
2019-04-26T09:41:48.137Z,56.80
2019-04-26T09:44:30.190Z,56.80
2019-04-26T09:47:06.066Z,56.80
2019-04-26T09:49:42.299Z,57.90
2019-04-26T09:52:12.480Z,57.10
2019-04-26T09:54:40.957Z,57.10
2019-04-26T09:57:09.464Z,56.80
2019-04-26T09:59:40.081Z,57.40
2019-04-26T10:02:09.698Z,57.10
2019-04-26T10:04:39.699Z,56.90
2019-04-26T10:07:08.199Z,56.90
2019-04-26T10:09:36.761Z,56.80
2019-04-26T10:12:09.581Z,57.60
2019-04-26T10:14:54.465Z,56.60
2019-04-26T10:17:30.708Z,58.00
2019-04-26T10:19:59.179Z,57.90
2019-04-26T10:22:29.301Z,57.40
2019-04-26T10:24:57.747Z,57.60
2019-04-26T10:27:26.497Z,57.30
2019-04-26T10:29:56.522Z,58.00
2019-04-26T10:32:26.336Z,57.20
2019-04-26T10:34:55.608Z,57.00
2019-04-26T10:37:24.169Z,57.80
2019-04-26T10:39:52.750Z,57.60
2019-04-26T10:42:21.725Z,58.30
2019-04-26T10:44:50.279Z,58.90
2019-04-26T10:47:18.909Z,57.80
2019-04-26T10:49:48.097Z,57.50
2019-04-26T10:52:27.669Z,57.20
2019-04-26T10:54:57.772Z,57.50
2019-04-26T10:57:31.057Z,58.40
2019-04-26T11:00:01.460Z,58.00
2019-04-26T11:02:29.932Z,58.00
2019-04-26T11:04:58.689Z,57.90
2019-04-26T11:07:27.516Z,57.80
2019-04-26T11:09:56.024Z,57.30
2019-04-26T11:12:24.565Z,57.30
2019-04-26T11:14:56.564Z,57.60
2019-04-26T11:17:23.591Z,57.20
2019-04-26T11:19:52.040Z,57.90
2019-04-26T11:22:28.923Z,57.70
2019-04-26T11:24:53.809Z,58.60
2019-04-26T11:27:21.260Z,58.40
2019-04-26T11:29:53.954Z,57.70
2019-04-26T11:32:19.978Z,57.80
2019-04-26T11:34:48.462Z,57.30
2019-04-26T11:37:17.934Z,57.30
2019-04-26T11:39:47.383Z,57.10
2019-04-26T11:42:16.301Z,58.60
2019-04-26T11:44:46.745Z,57.90
2019-04-26T11:47:16.894Z,57.80
2019-04-26T11:49:45.394Z,58.40
2019-04-26T11:52:13.936Z,58.60
2019-04-26T11:54:43.415Z,58.00
2019-04-26T11:57:13.471Z,58.40
2019-04-26T11:59:42.173Z,58.50
2019-04-26T12:02:12.242Z,57.20
2019-04-26T12:04:49.569Z,58.90
2019-04-26T12:07:22.939Z,58.60
2019-04-26T12:09:53.216Z,57.50
2019-04-26T12:12:21.834Z,57.30
2019-04-26T12:14:50.517Z,57.30
2019-04-26T12:17:19.217Z,57.20
2019-04-26T12:19:52.289Z,57.40
2019-04-26T12:22:18.994Z,57.30
2019-04-26T12:24:47.662Z,57.00
2019-04-26T12:27:16.357Z,57.10
2019-04-26T12:29:48.259Z,57.90
2019-04-26T12:32:17.153Z,57.70
2019-04-26T12:34:45.339Z,57.90
2019-04-26T12:37:19.767Z,59.40
2019-04-26T12:39:45.619Z,57.70
2019-04-26T12:42:16.024Z,58.60
2019-04-26T12:44:46.299Z,57.80
2019-04-26T12:47:25.677Z,57.60
2019-04-26T12:49:58.853Z,57.30
2019-04-26T12:52:26.154Z,57.60
2019-04-26T12:54:57.544Z,57.40
2019-04-26T12:57:24.856Z,57.20
2019-04-26T12:59:53.366Z,57.00
2019-04-26T13:02:23.243Z,57.00
2019-04-26T13:04:51.931Z,57.00
2019-04-26T13:07:23.689Z,59.50
2019-04-26T13:09:57.202Z,58.40
2019-04-26T13:12:30.812Z,59.10
2019-04-26T13:15:06.484Z,58.80
2019-04-26T13:17:39.209Z,58.80
2019-04-26T13:20:08.265Z,58.80
2019-04-26T13:22:45.909Z,58.30
2019-04-26T13:25:15.484Z,58.90
2019-04-26T13:27:45.523Z,58.60
2019-04-26T13:30:13.154Z,59.90
2019-04-26T13:32:41.708Z,59.10
2019-04-26T13:35:11.413Z,58.30
2019-04-26T13:37:44.719Z,58.20
2019-04-26T13:40:14.074Z,59.00
2019-04-26T13:42:42.769Z,58.40
2019-04-26T13:45:31.282Z,58.20
2019-04-26T13:48:19.347Z,58.10
2019-04-26T13:51:05.847Z,58.10
2019-04-26T13:53:34.653Z,58.00
2019-04-26T13:56:03.477Z,58.00
2019-04-26T13:58:32.270Z,58.10
2019-04-26T14:01:00.950Z,58.40
2019-04-26T14:03:33.304Z,59.90
2019-04-26T14:06:02.084Z,60.80
2019-04-26T14:08:30.581Z,60.20
2019-04-26T14:10:59.138Z,59.40
2019-04-26T14:13:27.845Z,59.20
2019-04-26T14:15:56.606Z,59.70
2019-04-26T14:18:25.353Z,59.20
2019-04-26T14:20:54.885Z,59.20
2019-04-26T14:23:25.953Z,58.80
2019-04-26T14:26:14.232Z,58.70
2019-04-26T14:28:42.916Z,59.10
2019-04-26T14:31:12.156Z,58.50
2019-04-26T14:33:41.959Z,58.80
2019-04-26T14:36:17.477Z,58.30
2019-04-26T14:38:41.387Z,57.90
2019-04-26T14:41:13.045Z,57.80
2019-04-26T14:43:41.563Z,57.70
2019-04-26T14:46:14.040Z,57.50
2019-04-26T14:48:44.761Z,58.30
2019-04-26T14:51:12.513Z,58.30
2019-04-26T14:53:41.042Z,58.40
2019-04-26T14:56:09.641Z,57.60
2019-04-26T14:58:38.226Z,58.50
2019-04-26T15:01:14.297Z,58.20
2019-04-26T15:03:47.236Z,57.50
2019-04-26T15:06:20.450Z,57.60
2019-04-26T15:19:34.628Z,66.50
2019-04-26T15:21:34.241Z,68.60
2019-04-26T15:24:02.910Z,68.80
2019-04-26T15:26:32.768Z,68.00
2019-04-26T15:29:02.475Z,68.60
2019-04-26T15:31:33.094Z,68.70
2019-04-26T15:34:03.247Z,68.70
2019-04-26T15:36:31.923Z,68.40
2019-04-26T15:39:02.691Z,67.90
2019-04-26T15:41:35.824Z,67.80
2019-04-26T15:44:20.259Z,68.00
2019-04-26T15:47:05.832Z,67.50
2019-04-26T15:49:37.032Z,65.90
2019-04-26T15:52:05.857Z,68.00
2019-04-26T15:54:34.380Z,68.10
2019-04-26T15:57:02.926Z,64.40
2019-04-26T15:59:32.881Z,67.90
2019-04-26T16:02:02.528Z,67.70
2019-04-26T16:04:32.421Z,67.70
2019-04-26T16:07:02.425Z,67.40
2019-04-26T16:09:32.469Z,66.60
2019-04-26T16:12:03.382Z,67.10
2019-04-26T16:14:36.660Z,66.90
2019-04-26T16:17:06.906Z,66.70
2019-04-26T16:19:35.406Z,67.30
2019-04-26T16:22:04.050Z,66.20
2019-04-26T16:24:34.122Z,66.10
2019-04-26T16:27:02.854Z,66.20
2019-04-26T16:29:35.393Z,66.10
2019-04-26T16:32:05.831Z,66.00
2019-04-26T16:34:35.965Z,65.00
2019-04-26T16:37:04.606Z,65.50
2019-04-26T16:39:38.901Z,65.60
2019-04-26T16:42:05.039Z,65.40
2019-04-26T16:44:34.005Z,65.00
2019-04-26T16:47:05.698Z,65.00
2019-04-26T16:49:35.113Z,64.90
2019-04-26T16:52:06.816Z,65.10
2019-04-26T16:54:34.249Z,64.90
2019-04-26T16:57:06.263Z,65.00
2019-04-26T18:14:29.664Z,62.70
2019-04-26T18:17:01.039Z,62.50
2019-04-26T18:19:47.361Z,62.50
2019-04-26T18:22:19.136Z,62.50
2019-04-26T18:24:49.702Z,62.50
2019-04-26T18:27:18.091Z,62.50
2019-04-26T18:29:46.696Z,62.40
2019-04-26T18:32:15.764Z,62.50
2019-04-26T18:34:48.713Z,62.40
2019-04-26T18:37:17.245Z,62.20
2019-04-26T18:39:49.964Z,62.20
2019-04-26T18:42:18.581Z,62.10
2019-04-26T18:44:47.957Z,62.10
2019-04-26T18:47:20.524Z,62.30
2019-04-26T18:49:52.082Z,62.20
2019-04-26T18:52:22.659Z,62.10
2019-04-26T18:54:52.428Z,62.00
2019-04-26T18:57:21.099Z,62.10
2019-04-26T18:59:51.542Z,62.10
2019-04-26T19:02:23.036Z,62.00
2019-04-26T19:04:52.974Z,62.00
2019-04-26T19:07:31.838Z,62.00
2019-04-26T19:10:02.811Z,61.90
2019-04-26T19:12:26.647Z,61.80
2019-04-26T19:15:04.231Z,61.80
2019-04-26T19:17:49.391Z,61.90
2019-04-26T19:20:19.668Z,61.80
2019-04-26T19:23:04.696Z,61.80
2019-04-26T19:25:36.411Z,61.70
2019-04-26T19:28:08.157Z,61.70
2019-04-26T19:30:39.916Z,61.70
2019-04-26T19:33:11.526Z,61.70
2019-04-26T19:35:39.359Z,61.40
2019-04-26T19:38:11.973Z,61.60
2019-04-26T19:40:39.352Z,61.30
2019-04-26T19:43:10.249Z,61.50
2019-04-26T19:45:45.907Z,61.60
2019-04-26T19:48:20.387Z,61.70
2019-04-26T19:50:53.224Z,61.50
2019-04-26T19:53:24.990Z,61.60
2019-04-26T19:56:07.384Z,61.40
2019-04-26T19:58:42.148Z,61.70
2019-04-26T20:01:12.246Z,61.60
2019-04-26T20:03:43.130Z,61.70
2019-04-26T20:06:14.129Z,61.70
2019-04-26T20:08:45.780Z,61.70
2019-04-26T20:11:12.883Z,61.60
2019-04-26T20:13:42.719Z,61.50
2019-04-26T20:16:11.403Z,61.50
2019-04-26T20:18:48.137Z,61.50
2019-04-26T20:21:16.969Z,61.50
2019-04-26T20:23:47.445Z,61.50
2019-04-26T20:26:17.142Z,61.50
2019-04-26T20:28:45.645Z,61.50
2019-04-26T20:31:15.819Z,61.40
2019-04-26T20:33:44.372Z,61.70
2019-04-26T20:36:12.983Z,61.50
2019-04-26T20:38:45.668Z,61.50
2019-04-26T20:41:14.757Z,61.40
2019-04-26T20:43:45.999Z,61.50
2019-04-26T20:46:15.484Z,61.50
2019-04-26T20:48:43.326Z,61.40
2019-04-26T20:51:12.086Z,61.30
2019-04-26T20:53:46.891Z,61.30
2019-04-26T20:56:18.165Z,61.30
2019-04-26T20:58:47.192Z,61.30
2019-04-26T21:01:16.722Z,60.90
2019-04-26T21:03:46.091Z,61.40
2019-04-26T21:06:15.131Z,61.40
2019-04-26T21:08:43.692Z,61.40
2019-04-26T21:11:13.727Z,61.30
2019-04-26T21:13:42.765Z,61.40
2019-04-26T21:16:15.268Z,61.50
2019-04-26T21:18:44.070Z,61.50
2019-04-26T21:21:15.802Z,61.40
2019-04-26T21:23:46.248Z,61.40
2019-04-26T21:26:17.624Z,61.40
2019-04-26T21:28:59.487Z,61.30
2019-04-26T21:31:29.702Z,61.40
2019-04-26T21:34:03.675Z,61.50
2019-04-26T21:36:40.950Z,61.30
2019-04-26T21:39:14.340Z,61.20
2019-04-26T21:41:48.532Z,61.30
2019-04-26T21:44:17.185Z,61.40
2019-04-26T21:46:49.547Z,61.40
2019-04-26T21:49:20.300Z,61.50
2019-04-26T21:51:51.138Z,61.20
2019-04-26T21:54:17.996Z,61.30
2019-04-26T21:56:49.756Z,61.30
2019-04-26T21:59:18.221Z,61.30
2019-04-26T22:01:48.316Z,61.40
2019-04-26T22:04:17.396Z,61.40
2019-04-26T22:06:49.137Z,61.30
2019-04-26T22:09:19.432Z,61.30
2019-04-26T22:11:49.469Z,61.30
2019-04-26T22:14:21.505Z,61.30
2019-04-26T22:16:57.657Z,61.30
2019-04-26T22:19:32.551Z,61.20
2019-04-26T22:22:15.371Z,61.20
2019-04-26T22:24:45.573Z,61.30
2019-04-26T22:27:17.300Z,61.40
2019-04-26T22:29:54.543Z,61.40
2019-04-26T22:32:19.282Z,61.40
2019-04-26T22:34:47.846Z,61.50
2019-04-26T22:37:29.083Z,61.50
2019-04-26T22:39:46.640Z,61.40
2019-04-26T22:42:15.199Z,61.30
2019-04-26T22:44:45.442Z,61.30
2019-04-26T22:47:15.757Z,61.50
2019-04-26T22:49:45.349Z,61.40
2019-04-26T22:52:16.174Z,61.50
2019-04-26T22:54:46.517Z,61.60
2019-04-26T22:57:16.176Z,61.40
2019-04-26T22:59:49.974Z,61.40
2019-04-26T23:02:18.400Z,61.50
2019-04-26T23:04:46.966Z,61.40
2019-04-26T23:07:18.335Z,61.60
2019-04-26T23:09:51.938Z,61.50
2019-04-26T23:12:35.568Z,61.50
2019-04-26T23:15:25.678Z,61.50
2019-04-26T23:17:58.558Z,61.60
2019-04-26T23:20:29.293Z,61.60
2019-04-26T23:23:00.506Z,61.60
2019-04-26T23:25:31.236Z,61.50
2019-04-26T23:28:00.056Z,61.50
2019-04-26T23:30:31.872Z,61.50
2019-04-26T23:32:59.035Z,61.60
2019-04-26T23:35:27.591Z,61.50
2019-04-26T23:37:56.539Z,61.60
2019-04-26T23:40:28.950Z,61.60
2019-04-26T23:42:56.522Z,61.50
2019-04-26T23:45:25.178Z,61.60
2019-04-26T23:47:53.608Z,61.50
2019-04-26T23:50:25.599Z,61.50
2019-04-26T23:52:53.052Z,61.60
2019-04-26T23:55:23.530Z,61.60
2019-04-26T23:57:53.443Z,61.40
